createdAt,value
2023-04-16T00:00:12.106Z,1.38
2023-04-16T00:02:41.342Z,1.08
2023-04-16T00:07:37.663Z,0.68
2023-04-16T00:10:06.618Z,1.13
2023-04-16T00:12:36.523Z,1.13
2023-04-16T00:15:05.217Z,1.00
2023-04-16T00:22:29.947Z,1.00
2023-04-16T00:24:57.946Z,1.35
2023-04-16T00:27:26.309Z,1.35
2023-04-16T00:29:55.713Z,1.77
2023-04-16T00:32:24.481Z,1.48
2023-04-16T00:34:52.558Z,1.10
2023-04-16T00:37:20.608Z,1.27
2023-04-16T00:39:48.767Z,1.45
2023-04-16T00:42:17.022Z,1.35
2023-04-16T00:44:45.221Z,1.17
2023-04-16T00:47:14.678Z,1.52
2023-04-16T00:49:43.016Z,1.17
2023-04-16T00:52:13.035Z,1.50
2023-04-16T00:54:42.195Z,1.30
2023-04-16T00:57:11.574Z,1.27
2023-04-16T00:59:39.847Z,1.23
2023-04-16T01:02:08.149Z,1.25
2023-04-16T01:04:37.950Z,1.08
2023-04-16T01:07:06.034Z,1.20
2023-04-16T01:09:34.278Z,1.13
2023-04-16T01:12:04.466Z,1.05
2023-04-16T01:14:36.306Z,0.63
2023-04-16T01:17:04.402Z,1.20
2023-04-16T01:19:32.690Z,1.58
2023-04-16T01:22:02.062Z,1.20
2023-04-16T01:24:30.029Z,1.17
2023-04-16T01:26:59.096Z,1.67
2023-04-16T01:29:27.519Z,0.82
2023-04-16T01:31:58.080Z,1.10
2023-04-16T01:34:28.737Z,1.13
2023-04-16T01:36:56.961Z,1.08
2023-04-16T01:39:26.472Z,1.08
2023-04-16T01:41:54.662Z,1.15
2023-04-16T01:44:23.319Z,0.98
2023-04-16T01:46:51.406Z,0.93
2023-04-16T01:49:19.503Z,1.30
2023-04-16T01:51:47.760Z,1.13
2023-04-16T01:54:15.831Z,1.23
2023-04-16T01:56:45.138Z,1.20
2023-04-16T01:59:13.454Z,1.13
2023-04-16T02:01:43.422Z,2.15
2023-04-16T02:06:39.410Z,1.35
2023-04-16T02:09:07.704Z,1.60
2023-04-16T02:11:37.488Z,1.65
2023-04-16T02:14:08.546Z,1.83
2023-04-16T02:16:37.865Z,1.77
2023-04-16T02:19:12.817Z,1.50
2023-04-16T02:21:42.863Z,1.60
2023-04-16T02:24:11.008Z,1.60
2023-04-16T02:26:39.344Z,1.35
2023-04-16T02:29:16.460Z,1.55
2023-04-16T02:31:49.843Z,1.63
2023-04-16T02:34:18.351Z,1.45
2023-04-16T02:36:46.319Z,1.45
2023-04-16T02:39:14.483Z,1.17
2023-04-16T02:41:42.692Z,1.27
2023-04-16T02:44:10.838Z,1.17
2023-04-16T02:46:40.264Z,1.38
2023-04-16T02:49:08.675Z,1.30
2023-04-16T02:51:36.825Z,1.45
2023-04-16T02:54:04.953Z,1.08
2023-04-16T02:56:34.189Z,1.50
2023-04-16T02:59:02.299Z,1.23
2023-04-16T03:01:31.015Z,1.27
2023-04-16T03:04:00.628Z,1.33
2023-04-16T03:06:28.674Z,1.50
2023-04-16T03:08:56.928Z,1.52
2023-04-16T03:11:25.098Z,1.23
2023-04-16T03:13:53.853Z,1.20
2023-04-16T03:16:21.918Z,1.38
2023-04-16T03:18:50.049Z,1.00
2023-04-16T03:21:19.867Z,1.10
2023-04-16T03:23:47.941Z,1.20
2023-04-16T03:26:16.424Z,1.38
2023-04-16T03:31:13.003Z,1.25
2023-04-16T03:33:41.729Z,0.82
2023-04-16T03:36:11.158Z,1.02
2023-04-16T03:38:40.579Z,0.95
2023-04-16T03:41:08.946Z,0.93
2023-04-16T03:43:38.193Z,0.75
2023-04-16T03:46:06.758Z,1.10
2023-04-16T03:48:35.019Z,0.90
2023-04-16T03:51:03.059Z,1.30
2023-04-16T03:53:31.193Z,0.65
2023-04-16T03:56:00.562Z,0.70
2023-04-16T03:58:31.371Z,0.88
2023-04-16T04:00:59.497Z,0.70
2023-04-16T04:05:56.647Z,0.75
2023-04-16T04:08:30.807Z,0.38
2023-04-16T04:11:00.303Z,0.65
2023-04-16T04:13:28.836Z,0.73
2023-04-16T04:15:56.893Z,0.90
2023-04-16T04:18:25.073Z,0.63
2023-04-16T04:20:53.578Z,0.88
2023-04-16T04:23:25.712Z,0.47
2023-04-16T04:25:53.832Z,0.57
2023-04-16T04:28:23.221Z,0.77
2023-04-16T04:30:51.522Z,0.85
2023-04-16T04:35:49.024Z,0.80
2023-04-16T04:38:19.867Z,0.85
2023-04-16T04:40:50.440Z,0.57
2023-04-16T04:43:20.097Z,0.40
2023-04-16T04:45:50.405Z,0.93
2023-04-16T04:48:19.072Z,0.80
2023-04-16T04:50:48.198Z,0.63
2023-04-16T04:53:16.267Z,0.40
2023-04-16T04:55:44.416Z,0.50
2023-04-16T04:58:12.704Z,0.52
2023-04-16T05:00:44.002Z,0.75
2023-04-16T05:03:13.875Z,0.60
2023-04-16T05:05:42.310Z,0.50
2023-04-16T05:08:10.373Z,0.65
2023-04-16T05:10:38.548Z,0.73
2023-04-16T05:13:06.742Z,0.50
2023-04-16T05:15:34.710Z,0.55
2023-04-16T05:18:02.757Z,0.82
2023-04-16T05:20:32.085Z,0.43
2023-04-16T05:23:00.048Z,0.73
2023-04-16T05:25:28.126Z,0.80
2023-04-16T05:27:56.115Z,0.60
2023-04-16T05:30:24.097Z,0.57
2023-04-16T05:32:52.090Z,0.60
2023-04-16T05:35:20.198Z,0.50
2023-04-16T05:37:49.673Z,0.75
2023-04-16T05:40:17.689Z,0.60
2023-04-16T05:42:45.758Z,0.68
2023-04-16T05:45:13.800Z,0.63
2023-04-16T05:47:41.868Z,0.60
2023-04-16T05:50:10.580Z,0.80
2023-04-16T05:52:38.575Z,0.85
2023-04-16T05:55:08.516Z,0.90
2023-04-16T05:57:36.711Z,0.88
2023-04-16T06:00:05.288Z,0.57
2023-04-16T06:02:40.453Z,1.10
2023-04-16T06:05:09.374Z,1.00
2023-04-16T06:07:37.573Z,0.63
2023-04-16T06:10:07.765Z,0.75
2023-04-16T06:12:36.178Z,1.00
2023-04-16T06:20:00.050Z,0.57
2023-04-16T06:22:28.460Z,0.52
2023-04-16T06:24:56.897Z,0.60
2023-04-16T06:27:27.179Z,0.90
2023-04-16T06:29:55.196Z,0.90
2023-04-16T06:32:23.233Z,0.65
2023-04-16T06:34:51.643Z,0.43
2023-04-16T06:37:19.591Z,0.55
2023-04-16T06:39:47.489Z,0.52
2023-04-16T06:42:15.486Z,0.85
2023-04-16T06:44:45.740Z,0.88
2023-04-16T06:47:13.770Z,0.77
2023-04-16T06:49:41.959Z,0.60
2023-04-16T06:52:10.058Z,1.10
2023-04-16T06:54:38.255Z,0.57
2023-04-16T06:57:06.230Z,0.40
2023-04-16T06:59:34.310Z,0.50
2023-04-16T07:02:03.750Z,0.50
2023-04-16T07:04:31.761Z,0.43
2023-04-16T07:06:59.826Z,0.32
2023-04-16T07:09:28.085Z,0.80
2023-04-16T07:14:24.296Z,0.50
2023-04-16T07:16:52.598Z,0.75
2023-04-16T07:19:22.234Z,0.50
2023-04-16T07:21:50.434Z,0.43
2023-04-16T07:24:18.476Z,0.55
2023-04-16T07:26:46.473Z,0.60
2023-04-16T07:29:14.579Z,0.43
2023-04-16T07:31:42.523Z,0.40
2023-04-16T07:34:10.675Z,0.43
2023-04-16T07:36:39.984Z,0.30
2023-04-16T07:39:08.261Z,0.40
2023-04-16T07:41:37.262Z,0.25
2023-04-16T07:44:05.527Z,0.60
2023-04-16T07:46:45.555Z,0.45
2023-04-16T07:54:11.899Z,1.02
2023-04-16T07:56:40.054Z,0.60
2023-04-16T07:59:21.022Z,0.52
2023-04-16T08:01:50.766Z,0.43
2023-04-16T08:04:24.526Z,0.32
2023-04-16T08:06:55.347Z,0.22
2023-04-16T08:09:25.052Z,0.52
2023-04-16T08:11:53.321Z,1.02
2023-04-16T08:14:21.742Z,0.93
2023-04-16T08:16:49.941Z,1.73
2023-04-16T08:19:18.050Z,1.20
2023-04-16T08:21:46.075Z,0.90
2023-04-16T08:24:15.811Z,0.93
2023-04-16T08:26:44.014Z,0.50
2023-04-16T08:29:12.267Z,0.73
2023-04-16T08:31:40.702Z,0.30
2023-04-16T08:34:08.783Z,0.68
2023-04-16T08:36:36.904Z,0.35
2023-04-16T08:39:05.432Z,0.52
2023-04-16T08:41:38.090Z,0.70
2023-04-16T08:44:10.281Z,0.95
2023-04-16T08:46:39.495Z,0.43
2023-04-16T08:49:08.882Z,0.60
2023-04-16T08:51:37.422Z,0.95
2023-04-16T08:56:38.402Z,0.32
2023-04-16T08:59:06.683Z,0.98
2023-04-16T09:04:04.502Z,0.63
2023-04-16T09:06:34.888Z,0.90
2023-04-16T09:09:04.743Z,0.95
2023-04-16T09:11:33.567Z,0.50
2023-04-16T09:14:03.477Z,0.70
2023-04-16T09:16:35.421Z,0.52
2023-04-16T09:19:03.969Z,0.88
2023-04-16T09:21:32.361Z,0.75
2023-04-16T09:24:01.399Z,0.70
2023-04-16T09:26:29.581Z,1.05
2023-04-16T09:31:27.238Z,0.57
2023-04-16T09:34:05.648Z,1.08
2023-04-16T09:36:34.551Z,0.50
2023-04-16T09:39:03.852Z,0.43
2023-04-16T09:41:36.095Z,0.47
2023-04-16T09:44:05.759Z,0.80
2023-04-16T09:46:37.356Z,0.38
2023-04-16T09:49:11.046Z,0.82
2023-04-16T09:51:39.708Z,1.17
2023-04-16T09:54:08.135Z,0.82
2023-04-16T09:56:41.527Z,0.65
2023-04-16T09:59:10.571Z,0.70
2023-04-16T10:01:40.220Z,0.73
2023-04-16T10:04:08.795Z,0.68
2023-04-16T10:06:36.910Z,1.02
2023-04-16T10:09:08.694Z,0.70
2023-04-16T10:11:37.439Z,0.70
2023-04-16T10:14:05.764Z,0.82
2023-04-16T10:16:35.568Z,0.90
2023-04-16T10:19:05.976Z,0.88
2023-04-16T10:21:34.619Z,0.65
2023-04-16T10:24:03.007Z,0.90
2023-04-16T10:26:31.502Z,0.88
2023-04-16T10:29:00.104Z,0.80
2023-04-16T10:31:29.402Z,0.60
2023-04-16T10:33:58.876Z,1.02
2023-04-16T10:36:28.209Z,0.98
2023-04-16T10:38:59.789Z,0.52
2023-04-16T10:41:28.363Z,0.63
2023-04-16T10:44:09.975Z,0.80
2023-04-16T10:46:39.936Z,0.75
2023-04-16T10:49:16.006Z,0.90
2023-04-16T10:51:54.385Z,1.20
2023-04-16T10:54:26.305Z,0.63
2023-04-16T10:56:56.922Z,0.82
2023-04-16T10:59:26.137Z,0.80
2023-04-16T11:01:57.041Z,1.00
2023-04-16T11:04:30.027Z,1.02
2023-04-16T11:07:08.514Z,0.90
2023-04-16T11:09:47.723Z,0.60
2023-04-16T11:12:18.463Z,0.85
2023-04-16T11:14:49.712Z,0.98
2023-04-16T11:17:18.280Z,0.55
2023-04-16T11:19:46.985Z,0.70
2023-04-16T11:22:18.325Z,1.08
2023-04-16T11:24:47.396Z,1.00
2023-04-16T11:27:16.221Z,0.70
2023-04-16T11:29:46.989Z,0.88
2023-04-16T11:32:22.830Z,0.85
2023-04-16T11:34:51.308Z,1.00
2023-04-16T11:37:23.506Z,1.10
2023-04-16T11:39:52.842Z,0.70
2023-04-16T11:42:22.990Z,1.10
2023-04-16T11:44:55.840Z,0.73
2023-04-16T11:47:24.686Z,1.13
2023-04-16T11:49:53.105Z,1.02
2023-04-16T11:52:29.782Z,0.77
2023-04-16T11:54:58.782Z,0.95
2023-04-16T11:57:27.961Z,0.80
2023-04-16T12:00:02.083Z,0.85
2023-04-16T12:02:42.259Z,0.73
2023-04-16T12:05:29.149Z,1.02
2023-04-16T12:07:59.051Z,0.55
2023-04-16T12:10:27.446Z,0.70
2023-04-16T12:12:55.592Z,1.20
2023-04-16T12:17:54.505Z,0.82
2023-04-16T12:20:22.681Z,1.13
2023-04-16T12:22:51.607Z,1.10
2023-04-16T12:25:21.152Z,0.85
2023-04-16T12:27:53.477Z,0.77
2023-04-16T12:30:23.519Z,0.98
2023-04-16T12:32:53.272Z,1.02
2023-04-16T12:35:32.256Z,0.68
2023-04-16T12:38:00.319Z,0.60
2023-04-16T12:40:29.870Z,0.68
2023-04-16T12:42:57.927Z,0.75
2023-04-16T12:47:53.894Z,0.85
2023-04-16T12:50:21.882Z,1.02
2023-04-16T12:52:50.021Z,1.08
2023-04-16T12:55:18.360Z,0.73
2023-04-16T12:57:48.840Z,0.95
2023-04-16T13:00:17.483Z,0.82
2023-04-16T13:02:45.829Z,0.93
2023-04-16T13:05:16.230Z,0.82
2023-04-16T13:07:44.383Z,0.70
2023-04-16T13:12:41.097Z,1.13
2023-04-16T13:15:11.898Z,1.13
2023-04-16T13:17:39.959Z,0.80
2023-04-16T13:20:09.011Z,0.90
2023-04-16T13:22:37.159Z,1.00
2023-04-16T13:27:33.357Z,0.73
2023-04-16T13:30:01.307Z,0.65
2023-04-16T13:32:30.793Z,0.77
2023-04-16T13:34:58.821Z,1.40
2023-04-16T13:37:27.037Z,1.35
2023-04-16T13:42:23.432Z,1.05
2023-04-16T13:44:54.281Z,0.95
2023-04-16T13:47:22.818Z,1.08
2023-04-16T13:49:52.256Z,0.98
2023-04-16T13:52:20.363Z,0.93
2023-04-16T13:54:49.875Z,0.70
2023-04-16T13:57:21.163Z,0.68
2023-04-16T13:59:49.393Z,1.10
2023-04-16T14:02:17.592Z,1.10
2023-04-16T14:04:46.162Z,1.10
2023-04-16T14:07:16.407Z,0.93
2023-04-16T14:09:44.500Z,0.80
2023-04-16T14:12:12.434Z,0.90
2023-04-16T14:14:41.001Z,0.80
2023-04-16T14:17:09.005Z,0.70
2023-04-16T14:22:04.810Z,1.08
2023-04-16T14:24:34.351Z,0.90
2023-04-16T14:27:02.490Z,1.10
2023-04-16T14:29:31.587Z,0.93
2023-04-16T14:31:59.891Z,0.68
2023-04-16T14:34:28.275Z,0.80
2023-04-16T14:36:56.732Z,0.88
2023-04-16T14:39:25.362Z,1.00
2023-04-16T14:41:55.096Z,0.82
2023-04-16T14:44:23.703Z,0.95
2023-04-16T14:46:51.738Z,0.93
2023-04-16T14:51:48.016Z,1.10
2023-04-16T14:54:16.342Z,1.25
2023-04-16T14:56:44.351Z,1.05
2023-04-16T15:01:42.160Z,1.20
2023-04-16T15:04:10.836Z,1.30
2023-04-16T15:06:39.218Z,1.02
2023-04-16T15:09:08.161Z,1.40
2023-04-16T15:11:36.559Z,1.20
2023-04-16T15:14:04.665Z,1.23
2023-04-16T15:16:34.066Z,1.27
2023-04-16T15:19:04.808Z,1.10
2023-04-16T15:21:33.480Z,1.08
2023-04-16T15:24:01.752Z,0.77
2023-04-16T15:26:30.802Z,1.42
2023-04-16T15:28:58.875Z,1.13
2023-04-16T15:31:27.039Z,1.25
2023-04-16T15:33:57.250Z,0.90
2023-04-16T15:36:26.657Z,1.25
2023-04-16T15:38:54.818Z,1.40
2023-04-16T15:41:23.245Z,1.40
2023-04-16T15:43:51.755Z,1.45
2023-04-16T15:46:20.033Z,1.83
2023-04-16T15:48:48.648Z,1.20
2023-04-16T15:51:18.175Z,1.00
2023-04-16T15:53:46.339Z,0.70
2023-04-16T15:56:14.431Z,1.05
2023-04-16T15:58:42.624Z,1.20
2023-04-16T16:01:10.773Z,1.15
2023-04-16T16:03:38.973Z,0.90
2023-04-16T16:06:08.568Z,1.20
2023-04-16T16:08:38.413Z,1.10
2023-04-16T16:11:07.011Z,1.10
2023-04-16T16:13:35.974Z,1.40
2023-04-16T16:16:04.257Z,1.25
2023-04-16T16:18:32.374Z,1.38
2023-04-16T16:21:00.590Z,1.08
2023-04-16T16:23:28.701Z,1.25
2023-04-16T16:25:58.115Z,1.20
2023-04-16T16:28:26.673Z,1.33
2023-04-16T16:30:55.709Z,1.30
2023-04-16T16:33:23.813Z,1.27
2023-04-16T16:35:51.855Z,1.20
2023-04-16T16:40:49.151Z,0.95
2023-04-16T16:43:18.688Z,1.20
2023-04-16T16:45:47.222Z,1.23
2023-04-16T16:48:15.394Z,1.77
2023-04-16T16:50:43.594Z,1.17
2023-04-16T16:53:11.726Z,1.35
2023-04-16T16:55:39.967Z,1.40
2023-04-16T17:00:38.075Z,1.42
2023-04-16T17:03:06.329Z,1.20
2023-04-16T17:05:34.347Z,0.85
2023-04-16T17:08:02.534Z,0.98
2023-04-16T17:12:58.793Z,1.20
2023-04-16T17:15:26.877Z,0.90
2023-04-16T17:17:57.192Z,0.70
2023-04-16T17:20:26.231Z,0.82
2023-04-16T17:22:54.416Z,0.90
2023-04-16T17:27:50.709Z,0.80
2023-04-16T17:30:19.174Z,0.60
2023-04-16T17:32:47.364Z,0.77
2023-04-16T17:37:45.048Z,0.82
2023-04-16T17:40:15.579Z,1.13
2023-04-16T17:42:43.968Z,0.70
2023-04-16T17:45:13.050Z,0.45
2023-04-16T17:47:41.237Z,0.80
2023-04-16T17:52:39.702Z,0.68
2023-04-16T17:55:08.529Z,0.88
2023-04-16T17:57:36.772Z,1.00
2023-04-16T18:00:09.899Z,0.88
2023-04-16T18:02:42.095Z,0.98
2023-04-16T18:05:10.974Z,0.82
2023-04-16T18:07:40.429Z,1.13
2023-04-16T18:10:10.264Z,1.15
2023-04-16T18:12:38.364Z,1.17
2023-04-16T18:15:07.372Z,1.25
2023-04-16T18:17:35.773Z,1.35
2023-04-16T18:20:06.995Z,1.20
2023-04-16T18:22:35.100Z,1.17
2023-04-16T18:25:05.339Z,0.82
2023-04-16T18:27:33.503Z,1.05
2023-04-16T18:30:03.968Z,1.05
2023-04-16T18:32:33.291Z,1.08
2023-04-16T18:35:01.880Z,1.00
2023-04-16T18:37:29.944Z,0.80
2023-04-16T18:39:58.262Z,0.82
2023-04-16T18:42:29.348Z,1.00
2023-04-16T18:44:59.343Z,0.73
2023-04-16T18:47:27.890Z,1.13
2023-04-16T18:49:55.923Z,1.10
2023-04-16T18:52:23.872Z,0.82
2023-04-16T18:54:52.040Z,1.58
2023-04-16T18:57:20.085Z,0.90
2023-04-16T18:59:49.528Z,1.08
2023-04-16T19:02:17.771Z,1.08
2023-04-16T19:07:13.869Z,0.98
2023-04-16T19:09:42.128Z,1.10
2023-04-16T19:12:10.516Z,1.20
2023-04-16T19:17:08.003Z,1.00
2023-04-16T19:19:36.752Z,1.10
2023-04-16T19:22:04.816Z,0.90
2023-04-16T19:24:34.225Z,1.27
2023-04-16T19:27:02.678Z,1.35
2023-04-16T19:32:02.594Z,1.23
2023-04-16T19:34:32.650Z,1.73
2023-04-16T19:37:01.132Z,1.60
2023-04-16T19:39:29.644Z,1.70
2023-04-16T19:41:57.776Z,1.52
2023-04-16T19:44:27.664Z,1.63
2023-04-16T19:46:56.227Z,1.25
2023-04-16T19:49:25.250Z,1.77
2023-04-16T19:51:55.378Z,1.75
2023-04-16T19:54:23.550Z,2.03
2023-04-16T19:56:52.980Z,1.80
2023-04-16T19:59:21.769Z,1.83
2023-04-16T20:01:50.145Z,2.28
2023-04-16T20:04:18.624Z,2.10
2023-04-16T20:06:47.217Z,2.38
2023-04-16T20:09:18.713Z,1.95
2023-04-16T20:11:47.205Z,2.17
2023-04-16T20:16:43.927Z,1.70
2023-04-16T20:19:17.209Z,2.25
2023-04-16T20:21:46.532Z,2.00
2023-04-16T20:24:16.055Z,1.92
2023-04-16T20:26:44.146Z,2.17
2023-04-16T20:29:12.332Z,1.65
2023-04-16T20:31:42.752Z,1.73
2023-04-16T20:34:10.913Z,2.28
2023-04-16T20:36:39.184Z,1.75
2023-04-16T20:39:08.355Z,1.88
2023-04-16T20:41:40.217Z,1.88
2023-04-16T20:44:10.562Z,1.95
2023-04-16T20:46:39.223Z,1.98
2023-04-16T20:49:08.331Z,2.25
2023-04-16T20:51:38.447Z,2.22
2023-04-16T20:54:08.673Z,2.13
2023-04-16T20:56:38.284Z,1.92
2023-04-16T20:59:06.335Z,1.90
2023-04-16T21:01:34.313Z,2.00
2023-04-16T21:04:03.192Z,2.13
2023-04-16T21:06:33.123Z,1.65
2023-04-16T21:09:01.521Z,1.85
2023-04-16T21:14:03.113Z,2.17
2023-04-16T21:16:31.309Z,2.35
2023-04-16T21:21:28.525Z,2.03
2023-04-16T21:23:56.906Z,2.13
2023-04-16T21:26:25.145Z,2.28
2023-04-16T21:28:55.064Z,2.70
2023-04-16T21:31:24.634Z,2.45
2023-04-16T21:33:52.706Z,3.03
2023-04-16T21:36:20.805Z,2.30
2023-04-16T21:38:49.211Z,2.03
2023-04-16T21:41:17.526Z,2.33
2023-04-16T21:46:13.638Z,2.13
2023-04-16T21:48:43.191Z,2.30
2023-04-16T21:51:11.565Z,2.53
2023-04-16T21:56:08.672Z,1.65
2023-04-16T21:58:36.724Z,1.52
2023-04-16T22:01:04.751Z,1.67
2023-04-16T22:03:33.422Z,1.60
2023-04-16T22:06:03.214Z,1.77
2023-04-16T22:08:31.599Z,1.80
2023-04-16T22:11:00.424Z,2.42
2023-04-16T22:13:32.482Z,1.83
2023-04-16T22:16:02.361Z,1.40
2023-04-16T22:18:33.061Z,1.90
2023-04-16T22:21:02.859Z,1.83
2023-04-16T22:23:31.306Z,1.63
2023-04-16T22:25:59.369Z,1.73
2023-04-16T22:28:27.611Z,1.63
2023-04-16T22:30:55.689Z,1.67
2023-04-16T22:33:23.745Z,1.75
2023-04-16T22:35:51.889Z,1.65
2023-04-16T22:38:21.439Z,2.08
2023-04-16T22:40:49.801Z,2.78
2023-04-16T22:43:18.143Z,1.63
2023-04-16T22:45:47.281Z,2.05
2023-04-16T22:48:15.518Z,1.95
2023-04-16T22:50:48.400Z,1.65
2023-04-16T22:53:16.594Z,1.48
2023-04-16T22:55:46.053Z,1.90
2023-04-16T22:58:14.094Z,1.63
2023-04-16T23:00:42.172Z,1.98
2023-04-16T23:03:11.120Z,2.03
2023-04-16T23:05:39.130Z,1.63
2023-04-16T23:08:08.353Z,2.25
2023-04-16T23:10:36.338Z,2.15
2023-04-16T23:13:05.734Z,2.30
2023-04-16T23:15:33.862Z,2.40
2023-04-16T23:18:02.254Z,2.10
2023-04-16T23:25:26.018Z,2.10
2023-04-16T23:27:54.185Z,2.25
2023-04-16T23:30:24.056Z,2.75
2023-04-16T23:32:52.314Z,2.00
2023-04-16T23:35:22.977Z,2.22
2023-04-16T23:37:51.465Z,1.92
2023-04-16T23:42:47.398Z,2.17
2023-04-16T23:45:15.497Z,1.60
2023-04-16T23:47:45.077Z,1.92
2023-04-16T23:50:13.168Z,1.35
2023-04-16T23:52:41.335Z,1.30
2023-04-16T23:55:09.875Z,1.52
2023-04-16T23:57:37.931Z,1.77
